Time;durP1;ratioP1;P1;durP2;ratioP2;P2;SDS_P1;SDS_P2;PMS_P1;PMS_P2;Temp;Humidity;BMP_temperature;BMP_pressure;BME280_temperature;BME280_humidity;BME280_pressure;Samples;Min_cycle;Max_cycle;Signal;HPM_P1;HPM_P2
2022/04/28 00:01:00;;;;;;;0.10;0.10;;;10.70;97.80;;;;;;5001516;28;20054;-69
2022/04/28 00:03:26;;;;;;;0.10;0.10;;;10.70;98.10;;;;;;5007785;28;20057;-69
2022/04/28 00:05:52;;;;;;;0.65;0.65;;;10.70;97.90;;;;;;5007906;28;20042;-69
2022/04/28 00:08:18;;;;;;;0.10;0.10;;;10.70;97.70;;;;;;5008993;28;20041;-69
2022/04/28 00:10:43;;;;;;;0.00;0.00;;;10.70;97.70;;;;;;5006655;28;20053;-69
2022/04/28 00:13:12;;;;;;;0.00;0.00;;;10.80;97.70;;;;;;5009329;28;20053;-69
2022/04/28 00:15:38;;;;;;;0.10;0.10;;;10.80;97.60;;;;;;5014448;28;20056;-69
2022/04/28 00:18:04;;;;;;;0.10;0.10;;;10.70;97.80;;;;;;5006267;28;20108;-69
2022/04/28 00:20:30;;;;;;;0.00;0.00;;;10.80;97.80;;;;;;5008204;28;20048;-69
2022/04/28 00:22:55;;;;;;;0.05;0.05;;;10.60;97.80;;;;;;4994671;28;20128;-69
2022/04/28 00:25:22;;;;;;;0.10;0.10;;;10.60;97.70;;;;;;5007599;28;20410;-69
2022/04/28 00:27:48;;;;;;;0.00;0.00;;;10.60;97.60;;;;;;4990579;28;20046;-69
2022/04/28 00:30:14;;;;;;;0.10;0.10;;;10.50;97.70;;;;;;5006962;28;20048;-69
2022/04/28 00:32:40;;;;;;;0.20;0.20;;;10.60;98.20;;;;;;5006355;28;20079;-69
2022/04/28 00:35:06;;;;;;;0.65;0.65;;;10.60;98.60;;;;;;5008594;28;20095;-69
2022/04/28 00:37:31;;;;;;;0.10;0.10;;;10.60;98.00;;;;;;5007313;28;20046;-69
2022/04/28 00:39:57;;;;;;;0.10;0.10;;;10.50;98.10;;;;;;5003288;28;20069;-69
2022/04/28 00:42:22;;;;;;;0.00;0.00;;;10.60;98.10;;;;;;5007015;28;20037;-69
2022/04/28 00:44:48;;;;;;;0.40;0.40;;;10.50;98.30;;;;;;5006643;28;20048;-69
2022/04/28 00:47:14;;;;;;;0.10;0.10;;;10.50;97.50;;;;;;5006551;28;20084;-69
2022/04/28 00:52:26;;;;;;;0.10;0.10;;;10.40;97.60;;;;;;5004302;28;20058;-69
2022/04/28 00:54:54;;;;;;;0.10;0.10;;;10.40;98.10;;;;;;4996468;28;20508;-69
2022/04/28 00:57:20;;;;;;;0.17;0.17;;;10.40;98.10;;;;;;5004962;28;20038;-69
2022/04/28 00:59:47;;;;;;;0.20;0.20;;;10.40;98.00;;;;;;5020676;28;20046;-69
2022/04/28 01:02:13;;;;;;;0.03;0.03;;;10.40;98.10;;;;;;5007068;28;20077;-69
2022/04/28 01:04:39;;;;;;;0.00;0.00;;;10.40;98.00;;;;;;5003116;28;21203;-70
2022/04/28 01:07:07;;;;;;;0.08;0.08;;;10.40;98.20;;;;;;5005577;28;20044;-69
2022/04/28 01:09:36;;;;;;;0.10;0.10;;;10.40;98.20;;;;;;5007974;28;20038;-69
2022/04/28 01:12:06;;;;;;;1.38;1.27;;;10.40;98.20;;;;;;5006266;28;20050;-69
2022/04/28 01:14:31;;;;;;;0.10;0.10;;;10.40;98.20;;;;;;5009754;28;20081;-69
2022/04/28 01:17:02;;;;;;;0.10;0.10;;;10.30;98.00;;;;;;5006522;28;20085;-69
2022/04/28 01:19:27;;;;;;;0.20;0.20;;;10.30;98.20;;;;;;5011667;28;20485;-69
2022/04/28 01:21:53;;;;;;;0.00;0.00;;;10.30;98.40;;;;;;5010307;28;20048;-69
2022/04/28 01:24:18;;;;;;;10.90;0.77;;;10.30;98.50;;;;;;5010440;28;20046;-69
2022/04/28 01:26:45;;;;;;;0.00;0.00;;;10.30;98.50;;;;;;5009368;28;20057;-69
2022/04/28 01:29:10;;;;;;;1.65;0.40;;;10.30;98.50;;;;;;5000996;28;20077;-69
2022/04/28 01:31:36;;;;;;;0.10;0.10;;;10.30;98.40;;;;;;5010802;28;20513;-69
2022/04/28 01:34:01;;;;;;;0.80;0.32;;;10.40;98.60;;;;;;5011922;28;20382;-69
2022/04/28 01:36:27;;;;;;;0.10;0.10;;;10.30;97.80;;;;;;5007299;28;20457;-68
2022/04/28 01:38:53;;;;;;;0.10;0.10;;;10.30;98.10;;;;;;5009795;28;20137;-69
2022/04/28 01:41:19;;;;;;;0.08;0.08;;;10.20;98.20;;;;;;5010081;28;20125;-68
2022/04/28 01:43:45;;;;;;;0.10;0.10;;;10.10;98.10;;;;;;4999785;28;20053;-69
2022/04/28 01:46:11;;;;;;;0.10;0.10;;;10.20;98.10;;;;;;5010789;28;20065;-69
2022/04/28 01:48:37;;;;;;;0.10;0.10;;;10.20;98.40;;;;;;5008620;28;20037;-69
2022/04/28 01:56:42;;;;;;;0.43;0.43;;;10.10;98.40;;;;;;4988794;28;20440;-69
2022/04/28 01:59:07;;;;;;;0.00;0.00;;;10.10;98.10;;;;;;5009531;28;20065;-69
2022/04/28 02:01:33;;;;;;;0.10;0.10;;;10.20;97.70;;;;;;5011359;28;20049;-69
2022/04/28 02:03:58;;;;;;;0.10;0.10;;;10.00;97.60;;;;;;5009267;28;20117;-69
2022/04/28 02:06:24;;;;;;;0.20;0.20;;;10.00;98.00;;;;;;4997766;28;20042;-69
2022/04/28 02:08:50;;;;;;;0.00;0.00;;;10.00;97.70;;;;;;5009627;28;20048;-69
2022/04/28 02:11:16;;;;;;;0.10;0.10;;;10.00;97.30;;;;;;5009941;28;20061;-69
2022/04/28 02:13:42;;;;;;;0.10;0.10;;;10.00;97.50;;;;;;5009629;28;20108;-69
2022/04/28 02:16:09;;;;;;;0.10;0.10;;;10.10;97.70;;;;;;5011165;28;20058;-69
2022/04/28 02:18:34;;;;;;;0.20;0.20;;;10.10;97.40;;;;;;5003945;28;20050;-69
2022/04/28 02:21:00;;;;;;;0.47;0.47;;;10.00;98.00;;;;;;5009691;28;20567;-69
2022/04/28 02:23:25;;;;;;;0.10;0.10;;;10.00;97.60;;;;;;5002042;28;20046;-69
2022/04/28 02:25:51;;;;;;;0.10;0.10;;;10.00;97.70;;;;;;5008926;28;20046;-69
2022/04/28 02:28:16;;;;;;;0.10;0.10;;;10.10;98.10;;;;;;5005329;28;20115;-69
2022/04/28 02:30:42;;;;;;;0.10;0.10;;;10.00;97.50;;;;;;5006614;28;20104;-69
2022/04/28 02:33:11;;;;;;;0.63;0.63;;;10.00;97.70;;;;;;5010780;28;20045;-69
2022/04/28 02:35:37;;;;;;;0.40;0.30;;;10.00;97.60;;;;;;5010695;28;20042;-69
2022/04/28 02:38:03;;;;;;;1.35;0.65;;;10.00;97.60;;;;;;5006623;28;20052;-69
2022/04/28 02:40:29;;;;;;;0.10;0.10;;;10.00;97.80;;;;;;5006228;28;20030;-68
2022/04/28 02:42:55;;;;;;;0.10;0.10;;;10.00;98.30;;;;;;5009974;28;20125;-69
2022/04/28 02:45:20;;;;;;;0.10;0.10;;;10.00;97.70;;;;;;5008618;28;20068;-68
2022/04/28 02:47:46;;;;;;;0.10;0.10;;;10.10;97.80;;;;;;5007495;28;20054;-69
2022/04/28 02:50:11;;;;;;;0.00;0.00;;;10.00;98.30;;;;;;5010487;28;20045;-69
2022/04/28 02:52:40;;;;;;;0.10;0.10;;;10.00;97.50;;;;;;5009258;28;20095;-69
2022/04/28 02:55:07;;;;;;;0.10;0.10;;;10.00;98.00;;;;;;5010488;28;20049;-69
2022/04/28 02:57:33;;;;;;;0.05;0.05;;;10.00;98.10;;;;;;5003420;28;20042;-69
2022/04/28 03:00:00;;;;;;;1.48;0.85;;;10.00;97.70;;;;;;5007114;28;20171;-69
2022/04/28 03:02:26;;;;;;;0.10;0.10;;;9.90;98.70;;;;;;5015846;28;20046;-69
2022/04/28 03:04:51;;;;;;;0.17;0.17;;;9.90;98.20;;;;;;5009046;28;20046;-69
2022/04/28 03:12:45;;;;;;;0.10;0.10;;;9.90;98.30;;;;;;5037472;28;20053;-69
2022/04/28 03:15:11;;;;;;;0.10;0.10;;;9.90;98.20;;;;;;5010056;28;20042;-69
2022/04/28 03:17:37;;;;;;;0.10;0.10;;;9.90;97.90;;;;;;5033505;28;20050;-69
2022/04/28 03:20:04;;;;;;;0.57;0.57;;;9.90;98.00;;;;;;5008128;28;20053;-69
2022/04/28 03:22:30;;;;;;;0.20;0.20;;;9.90;97.90;;;;;;5001325;28;20057;-69
2022/04/28 03:24:56;;;;;;;0.00;0.00;;;10.00;98.30;;;;;;5008949;28;20038;-69
2022/04/28 03:27:21;;;;;;;0.00;0.00;;;9.90;98.70;;;;;;5007775;28;20087;-69
2022/04/28 03:29:47;;;;;;;0.10;0.10;;;9.90;98.20;;;;;;5006747;28;20045;-68
2022/04/28 03:32:12;;;;;;;0.35;0.35;;;10.00;98.20;;;;;;5009535;28;20042;-69
2022/04/28 03:34:38;;;;;;;0.20;0.20;;;10.00;98.30;;;;;;5007372;28;20482;-69
2022/04/28 03:37:03;;;;;;;0.10;0.10;;;10.00;97.80;;;;;;5004328;28;20061;-68
2022/04/28 03:39:29;;;;;;;0.10;0.10;;;10.00;98.60;;;;;;5007776;28;20045;-69
2022/04/28 03:41:55;;;;;;;0.00;0.00;;;9.90;99.00;;;;;;5007433;28;20586;-69
2022/04/28 03:44:20;;;;;;;0.10;0.10;;;9.90;99.40;;;;;;5009000;28;20108;-69
2022/04/28 03:46:46;;;;;;;0.10;0.10;;;9.90;98.30;;;;;;5007836;28;20037;-69
2022/04/28 03:49:12;;;;;;;0.10;0.10;;;9.90;99.20;;;;;;5007010;28;20153;-69
2022/04/28 03:51:37;;;;;;;0.10;0.10;;;9.90;98.90;;;;;;5008070;28;20050;-69
2022/04/28 03:54:03;;;;;;;0.32;0.32;;;9.90;99.00;;;;;;5009158;28;20050;-69
2022/04/28 03:56:31;;;;;;;0.00;0.00;;;9.90;99.70;;;;;;5006525;28;20042;-69
2022/04/28 03:58:57;;;;;;;0.08;0.08;;;9.80;99.90;;;;;;5009854;28;20607;-69
2022/04/28 04:01:23;;;;;;;0.10;0.10;;;9.80;99.80;;;;;;5011442;28;20473;-68
2022/04/28 04:03:50;;;;;;;0.00;0.00;;;9.80;99.80;;;;;;5006457;28;20099;-69
2022/04/28 04:06:15;;;;;;;0.05;0.05;;;9.80;99.00;;;;;;5009333;28;20046;-68
2022/04/28 04:08:41;;;;;;;0.10;0.10;;;9.80;99.80;;;;;;5007239;28;20049;-68
2022/04/28 04:11:07;;;;;;;0.20;0.20;;;9.80;99.20;;;;;;5006457;28;20080;-68
2022/04/28 04:13:33;;;;;;;0.05;0.05;;;9.80;99.80;;;;;;5007749;28;20405;-68
2022/04/28 04:15:59;;;;;;;0.00;0.00;;;9.80;99.30;;;;;;5007851;28;20045;-69
2022/04/28 04:18:25;;;;;;;0.10;0.10;;;9.80;99.90;;;;;;4997535;28;20464;-69
2022/04/28 04:20:50;;;;;;;2.85;1.75;;;9.70;99.90;;;;;;5003972;28;20497;-68
2022/04/28 04:23:16;;;;;;;0.10;0.10;;;9.80;99.90;;;;;;5005880;28;20052;-68
2022/04/28 04:25:41;;;;;;;0.00;0.00;;;9.80;99.90;;;;;;5007835;28;20042;-69
2022/04/28 04:28:07;;;;;;;0.00;0.00;;;9.70;99.90;;;;;;5005175;28;20128;-69
2022/04/28 04:33:17;;;;;;;0.00;0.00;;;9.70;99.90;;;;;;5006731;28;20495;-68
2022/04/28 04:35:43;;;;;;;0.00;0.00;;;9.70;99.90;;;;;;5005944;28;20133;-69
2022/04/28 04:38:08;;;;;;;0.32;0.32;;;9.80;99.90;;;;;;5006066;28;20046;-68
2022/04/28 04:40:34;;;;;;;0.10;0.10;;;9.80;99.90;;;;;;5006815;28;20049;-68
2022/04/28 04:42:59;;;;;;;0.00;0.00;;;9.80;99.90;;;;;;5008334;28;20045;-68
2022/04/28 04:45:25;;;;;;;0.10;0.10;;;9.90;99.90;;;;;;5006239;28;20416;-69
2022/04/28 04:47:50;;;;;;;0.10;0.10;;;9.90;99.90;;;;;;5001645;28;20046;-69
2022/04/28 04:50:16;;;;;;;0.10;0.10;;;9.90;99.90;;;;;;5008304;28;20073;-68
2022/04/28 04:52:41;;;;;;;1.25;0.45;;;10.00;99.90;;;;;;5005181;28;20048;-69
2022/04/28 04:55:07;;;;;;;1.10;0.68;;;10.00;99.90;;;;;;5002550;28;20042;-69
2022/04/28 04:57:33;;;;;;;0.40;0.40;;;9.90;99.90;;;;;;5020883;28;20045;-68
2022/04/28 04:59:58;;;;;;;0.30;0.30;;;10.00;99.90;;;;;;5012009;28;20050;-69
2022/04/28 05:02:24;;;;;;;2.55;1.17;;;10.00;99.90;;;;;;5012331;28;20104;-68
2022/04/28 05:04:50;;;;;;;0.10;0.10;;;10.10;99.90;;;;;;5006445;28;20038;-68
2022/04/28 05:07:16;;;;;;;2.72;0.75;;;10.00;99.90;;;;;;5002721;28;20080;-68
2022/04/28 05:09:42;;;;;;;0.10;0.10;;;10.00;99.90;;;;;;5006479;28;20074;-68
2022/04/28 05:12:08;;;;;;;0.00;0.00;;;10.10;99.90;;;;;;5007755;28;20133;-69
2022/04/28 05:14:34;;;;;;;0.00;0.00;;;10.00;99.90;;;;;;5006173;28;20068;-68
2022/04/28 05:17:00;;;;;;;0.47;0.47;;;10.00;99.90;;;;;;5007468;28;20657;-68
2022/04/28 05:19:26;;;;;;;0.10;0.10;;;10.00;99.90;;;;;;5002728;28;20045;-68
2022/04/28 05:21:52;;;;;;;0.00;0.00;;;10.00;99.90;;;;;;5006990;28;20073;-68
2022/04/28 05:24:18;;;;;;;0.20;0.20;;;10.00;99.90;;;;;;5007101;28;20096;-69
2022/04/28 05:26:44;;;;;;;0.10;0.10;;;10.10;99.90;;;;;;5006325;28;20057;-68
2022/04/28 05:29:10;;;;;;;0.10;0.10;;;10.10;99.90;;;;;;5013722;28;20124;-68
2022/04/28 05:31:35;;;;;;;0.13;0.13;;;10.20;99.90;;;;;;5014114;28;20130;-68
2022/04/28 05:34:01;;;;;;;0.10;0.10;;;10.20;99.90;;;;;;5005113;28;20034;-68
2022/04/28 05:36:28;;;;;;;0.10;0.10;;;10.10;99.90;;;;;;5007643;28;20088;-68
2022/04/28 05:38:56;;;;;;;0.10;0.10;;;10.20;99.90;;;;;;5007573;28;20054;-69
2022/04/28 05:41:23;;;;;;;0.10;0.10;;;10.20;99.90;;;;;;5006086;28;20046;-69
2022/04/28 05:46:33;;;;;;;0.10;0.10;;;10.10;99.90;;;;;;5007805;28;20046;-69
2022/04/28 05:48:59;;;;;;;0.15;0.15;;;10.20;99.90;;;;;;5006263;28;20678;-69
2022/04/28 05:51:25;;;;;;;0.10;0.10;;;10.30;99.90;;;;;;5020022;28;20489;-68
2022/04/28 05:53:50;;;;;;;0.10;0.10;;;10.30;99.90;;;;;;5005020;28;20046;-68
2022/04/28 05:56:16;;;;;;;0.15;0.15;;;10.50;99.90;;;;;;5007454;28;20042;-68
2022/04/28 05:58:41;;;;;;;0.10;0.10;;;10.40;99.90;;;;;;5005731;28;20053;-69
2022/04/28 06:01:07;;;;;;;0.10;0.10;;;10.30;99.90;;;;;;5004042;28;20050;-69
2022/04/28 06:03:33;;;;;;;0.00;0.00;;;10.30;99.90;;;;;;5008595;28;20593;-69
2022/04/28 06:05:58;;;;;;;0.10;0.10;;;10.50;99.90;;;;;;5001684;28;20535;-69
2022/04/28 06:08:24;;;;;;;0.30;0.30;;;10.40;99.90;;;;;;5037683;28;20046;-69
2022/04/28 06:10:49;;;;;;;1.52;1.35;;;10.50;99.90;;;;;;5010883;28;20081;-69
2022/04/28 06:13:15;;;;;;;0.95;0.88;;;10.70;99.90;;;;;;5011508;28;20107;-69
2022/04/28 06:15:40;;;;;;;0.00;0.00;;;10.60;99.90;;;;;;5007179;28;20708;-69
2022/04/28 06:18:06;;;;;;;0.20;0.20;;;10.70;99.90;;;;;;5022487;28;20053;-69
2022/04/28 06:20:31;;;;;;;1.45;1.08;;;10.80;99.90;;;;;;5004766;28;20525;-69
2022/04/28 06:22:57;;;;;;;0.10;0.10;;;10.80;99.90;;;;;;5034944;28;20049;-69
2022/04/28 06:25:23;;;;;;;0.10;0.10;;;10.80;99.90;;;;;;5007919;28;20386;-69
2022/04/28 06:27:52;;;;;;;0.15;0.15;;;10.70;99.90;;;;;;5008559;28;20037;-69
2022/04/28 06:30:18;;;;;;;0.60;0.50;;;10.80;99.90;;;;;;5010187;28;20081;-69
2022/04/28 06:32:44;;;;;;;0.85;0.85;;;10.90;99.90;;;;;;5009538;28;20077;-69
2022/04/28 06:35:09;;;;;;;0.47;0.47;;;10.90;99.90;;;;;;5035904;28;20070;-69
2022/04/28 06:37:35;;;;;;;0.10;0.10;;;10.90;99.90;;;;;;5007751;28;20549;-68
2022/04/28 06:40:02;;;;;;;0.05;0.05;;;10.90;99.90;;;;;;5005894;28;20413;-69
2022/04/28 06:42:27;;;;;;;0.10;0.10;;;10.90;99.90;;;;;;5009904;28;20053;-69
2022/04/28 06:44:53;;;;;;;0.52;0.52;;;10.90;99.90;;;;;;5009455;28;20064;-69
2022/04/28 06:47:18;;;;;;;0.10;0.10;;;10.90;99.90;;;;;;5007786;28;20042;-69
2022/04/28 06:49:44;;;;;;;0.10;0.10;;;10.90;99.90;;;;;;5009796;28;20121;-69
2022/04/28 06:52:10;;;;;;;0.20;0.20;;;10.90;99.90;;;;;;5008885;28;20111;-69
2022/04/28 06:54:35;;;;;;;0.10;0.10;;;11.00;99.90;;;;;;5006469;28;20052;-69
2022/04/28 06:57:01;;;;;;;13.45;1.95;;;11.00;99.90;;;;;;5007839;28;20677;-69
2022/04/28 06:59:26;;;;;;;0.10;0.10;;;11.00;99.90;;;;;;5007925;28;20069;-69
2022/04/28 07:01:52;;;;;;;0.00;0.00;;;11.10;99.90;;;;;;5042174;28;20042;-69
2022/04/28 07:04:18;;;;;;;0.10;0.10;;;11.00;99.90;;;;;;5009422;28;20050;-68
2022/04/28 07:06:43;;;;;;;0.20;0.20;;;11.10;99.90;;;;;;5007107;28;20243;-69
2022/04/28 07:09:09;;;;;;;0.52;0.52;;;11.10;99.90;;;;;;5002699;28;20445;-69
2022/04/28 07:11:35;;;;;;;0.17;0.17;;;11.10;99.90;;;;;;5007801;28;20140;-69
2022/04/28 07:14:00;;;;;;;0.10;0.10;;;11.20;99.90;;;;;;5008647;28;20042;-69
2022/04/28 07:16:26;;;;;;;0.10;0.10;;;11.40;99.90;;;;;;5009904;28;20779;-69
2022/04/28 07:18:51;;;;;;;0.25;0.25;;;11.50;99.90;;;;;;5007315;28;20456;-69
2022/04/28 07:21:17;;;;;;;0.10;0.10;;;11.60;99.90;;;;;;5009473;28;20057;-69
2022/04/28 07:23:42;;;;;;;0.10;0.10;;;11.70;99.90;;;;;;5039142;28;20042;-69
2022/04/28 07:26:08;;;;;;;0.10;0.10;;;11.80;99.90;;;;;;5009392;28;20038;-69
2022/04/28 07:28:33;;;;;;;0.03;0.03;;;11.90;99.90;;;;;;5008679;28;20580;-68
2022/04/28 07:30:59;;;;;;;0.10;0.10;;;12.00;99.30;;;;;;5009462;28;20100;-68
2022/04/28 07:33:25;;;;;;;0.00;0.00;;;11.90;99.90;;;;;;5008998;28;20068;-68
2022/04/28 07:35:50;;;;;;;0.10;0.10;;;12.10;99.60;;;;;;5009390;28;20054;-65
2022/04/28 07:38:16;;;;;;;0.10;0.10;;;12.20;99.70;;;;;;5007061;28;20448;-69
2022/04/28 07:40:41;;;;;;;0.10;0.10;;;12.10;99.20;;;;;;5006733;28;20125;-69
2022/04/28 07:43:07;;;;;;;0.03;0.03;;;11.90;99.10;;;;;;5008771;28;20790;-69
2022/04/28 07:45:32;;;;;;;0.10;0.10;;;11.80;99.30;;;;;;5007662;28;20066;-69
2022/04/28 07:47:58;;;;;;;0.00;0.00;;;11.60;99.80;;;;;;5007219;28;20049;-69
2022/04/28 07:50:24;;;;;;;0.00;0.00;;;11.60;99.90;;;;;;5007122;28;20084;-68
2022/04/28 07:52:50;;;;;;;0.03;0.03;;;11.70;99.90;;;;;;5002152;28;20042;-68
2022/04/28 07:55:16;;;;;;;0.10;0.10;;;11.80;99.90;;;;;;5006777;28;20048;-68
2022/04/28 07:57:41;;;;;;;0.10;0.10;;;11.80;99.90;;;;;;4997776;28;20129;-69
2022/04/28 08:00:08;;;;;;;1.05;1.00;;;11.80;99.80;;;;;;5001431;28;20042;-69
2022/04/28 08:02:36;;;;;;;0.10;0.10;;;11.80;99.90;;;;;;5008310;28;20417;-69
2022/04/28 08:05:04;;;;;;;0.10;0.10;;;12.00;99.90;;;;;;5009102;28;20405;-69
2022/04/28 08:07:30;;;;;;;0.08;0.08;;;11.90;99.70;;;;;;5006648;28;20045;-69
2022/04/28 08:09:56;;;;;;;0.10;0.10;;;11.80;99.30;;;;;;5006310;28;20044;-69
2022/04/28 08:12:21;;;;;;;0.00;0.00;;;11.80;99.70;;;;;;5006807;28;20113;-69
2022/04/28 08:14:47;;;;;;;0.10;0.10;;;11.80;98.80;;;;;;5023118;28;20058;-69
2022/04/28 08:17:13;;;;;;;0.10;0.10;;;11.80;99.60;;;;;;5008214;28;20045;-69
2022/04/28 08:19:38;;;;;;;0.05;0.05;;;11.70;99.90;;;;;;5005451;28;20056;-69
2022/04/28 08:22:04;;;;;;;0.20;0.20;;;11.70;99.90;;;;;;4999837;28;20169;-69
2022/04/28 08:24:29;;;;;;;0.10;0.10;;;11.60;99.90;;;;;;4997654;28;20147;-70
2022/04/28 08:26:55;;;;;;;0.00;0.00;;;11.60;99.90;;;;;;5002174;28;20405;-69
2022/04/28 08:29:24;;;;;;;0.10;0.10;;;11.70;99.90;;;;;;5007934;28;20052;-69
2022/04/28 08:31:50;;;;;;;0.10;0.10;;;12.00;99.90;;;;;;5038075;28;20088;-69
2022/04/28 08:34:18;;;;;;;0.10;0.10;;;11.90;99.90;;;;;;5004595;28;20038;-68
2022/04/28 08:36:45;;;;;;;0.00;0.00;;;12.00;99.90;;;;;;5005869;28;20045;-68
2022/04/28 08:39:11;;;;;;;0.10;0.10;;;11.90;99.90;;;;;;5008812;28;20108;-68
2022/04/28 08:41:41;;;;;;;0.00;0.00;;;11.90;99.90;;;;;;5008625;28;20497;-68
2022/04/28 08:44:14;;;;;;;0.10;0.10;;;12.00;99.90;;;;;;5002493;28;20046;-68
2022/04/28 08:46:52;;;;;;;0.00;0.00;;;12.00;99.70;;;;;;5007409;28;20050;-69
2022/04/28 08:49:26;;;;;;;0.00;0.00;;;11.90;99.90;;;;;;5002733;28;20045;-68
2022/04/28 08:51:54;;;;;;;0.10;0.10;;;11.80;99.90;;;;;;5006535;28;20042;-68
2022/04/28 08:54:21;;;;;;;0.10;0.10;;;11.90;99.90;;;;;;5003640;28;20425;-68
2022/04/28 08:56:49;;;;;;;0.00;0.00;;;11.90;99.80;;;;;;5008212;28;20120;-68
2022/04/28 08:59:15;;;;;;;4.18;0.80;;;12.00;99.60;;;;;;5005055;28;20166;-68
2022/04/28 09:01:41;;;;;;;0.03;0.03;;;12.00;99.80;;;;;;5008085;28;20165;-68
2022/04/28 09:04:10;;;;;;;0.10;0.10;;;12.10;99.90;;;;;;5008806;28;20042;-68
2022/04/28 09:06:37;;;;;;;0.03;0.03;;;12.10;99.90;;;;;;5007421;28;20494;-68
2022/04/28 09:09:04;;;;;;;0.00;0.00;;;12.00;99.30;;;;;;5003172;28;20046;-68
2022/04/28 09:11:34;;;;;;;0.32;0.32;;;12.00;99.50;;;;;;5009377;28;20049;-67
2022/04/28 09:14:09;;;;;;;0.00;0.00;;;12.10;99.70;;;;;;5006154;28;20042;-68
2022/04/28 09:16:56;;;;;;;0.10;0.10;;;12.10;99.60;;;;;;5002825;28;20050;-68
2022/04/28 09:19:27;;;;;;;0.10;0.10;;;12.10;99.00;;;;;;5003037;28;20120;-67
2022/04/28 09:22:01;;;;;;;0.10;0.10;;;12.10;99.50;;;;;;5006860;28;20038;-68
2022/04/28 09:24:27;;;;;;;0.10;0.10;;;12.00;99.60;;;;;;5006592;28;20116;-68
2022/04/28 09:26:55;;;;;;;0.22;0.22;;;12.00;99.50;;;;;;5006023;28;20074;-68
2022/04/28 09:29:21;;;;;;;0.60;0.55;;;12.00;99.90;;;;;;5006916;28;20673;-68
2022/04/28 09:31:49;;;;;;;0.30;0.30;;;12.00;99.50;;;;;;5008065;28;20597;-68
2022/04/28 09:34:17;;;;;;;0.15;0.15;;;12.00;99.20;;;;;;5005078;28;20045;-67
2022/04/28 09:36:44;;;;;;;0.10;0.10;;;12.10;99.70;;;;;;5010492;28;20050;-68
2022/04/28 09:42:29;;;;;;;0.60;0.43;;;12.20;99.80;;;;;;5011833;28;20203;-67
2022/04/28 09:44:51;;;;;;;0.32;0.32;;;12.30;99.70;;;;;;5007996;28;20485;-68
2022/04/28 09:47:18;;;;;;;0.10;0.10;;;12.30;99.60;;;;;;5010147;28;20049;-68
2022/04/28 09:49:58;;;;;;;0.00;0.00;;;12.30;99.60;;;;;;4997692;28;20045;-69
2022/04/28 09:52:26;;;;;;;0.10;0.10;;;12.20;99.60;;;;;;5011990;28;20095;-68
2022/04/28 09:54:54;;;;;;;0.30;0.30;;;12.20;99.50;;;;;;5007399;28;20046;-68
2022/04/28 09:57:21;;;;;;;0.00;0.00;;;12.40;98.80;;;;;;5010892;28;20045;-68
2022/04/28 09:59:55;;;;;;;1.65;0.80;;;12.30;99.90;;;;;;5010842;28;20065;-68
2022/04/28 10:02:27;;;;;;;0.10;0.10;;;12.40;99.00;;;;;;5009057;28;20126;-68
2022/04/28 10:04:54;;;;;;;0.10;0.10;;;12.30;98.70;;;;;;5012665;28;20038;-66
2022/04/28 10:07:21;;;;;;;0.22;0.22;;;12.30;99.40;;;;;;5004136;28;20045;-66
2022/04/28 10:09:49;;;;;;;0.05;0.05;;;12.40;99.40;;;;;;4994123;28;20043;-67
2022/04/28 10:12:25;;;;;;;0.30;0.30;;;12.40;99.60;;;;;;5000453;28;20133;-66
2022/04/28 10:14:53;;;;;;;0.10;0.10;;;12.50;99.60;;;;;;4998986;28;20056;-69
2022/04/28 10:17:32;;;;;;;0.00;0.00;;;12.40;99.40;;;;;;5006222;28;20045;-69
2022/04/28 10:20:03;;;;;;;0.10;0.10;;;12.40;98.90;;;;;;5007073;28;20515;-70
2022/04/28 10:22:33;;;;;;;0.20;0.20;;;12.40;99.20;;;;;;5006594;28;20069;-70
2022/04/28 10:33:21;;;;;;;0.10;0.10;;;12.50;98.60;;;;;;5025736;28;20119;-69
2022/04/28 10:35:49;;;;;;;0.10;0.10;;;12.50;99.00;;;;;;5010192;28;20041;-69
2022/04/28 10:38:31;;;;;;;0.63;0.63;;;12.60;98.20;;;;;;5009785;28;20050;-69
2022/04/28 10:41:10;;;;;;;0.10;0.10;;;12.70;98.00;;;;;;5005233;28;20038;-69
2022/04/28 10:43:41;;;;;;;0.20;0.20;;;12.70;98.00;;;;;;5007635;28;20070;-69
2022/04/28 10:46:06;;;;;;;0.00;0.00;;;12.60;98.30;;;;;;5006700;28;20050;-69
2022/04/28 10:48:43;;;;;;;0.17;0.17;;;12.70;98.60;;;;;;5009258;28;20081;-69
2022/04/28 10:51:21;;;;;;;0.10;0.10;;;12.70;99.00;;;;;;5009974;28;20077;-69
2022/04/28 10:54:01;;;;;;;0.20;0.20;;;12.80;99.00;;;;;;5008092;28;20125;-69
2022/04/28 10:56:39;;;;;;;0.10;0.10;;;12.90;98.10;;;;;;5010127;28;20042;-69
2022/04/28 10:59:34;;;;;;;0.20;0.20;;;12.80;98.00;;;;;;5008811;28;20052;-70
2022/04/28 11:02:13;;;;;;;0.10;0.10;;;12.90;98.50;;;;;;5005003;28;20042;-69
2022/04/28 11:04:41;;;;;;;0.13;0.13;;;12.90;98.90;;;;;;5005689;28;20573;-70
2022/04/28 11:07:12;;;;;;;0.25;0.25;;;12.60;98.20;;;;;;5003286;28;20041;-69
2022/04/28 11:09:41;;;;;;;0.28;0.28;;;12.60;99.50;;;;;;5008829;28;20045;-71
2022/04/28 11:12:11;;;;;;;0.10;0.10;;;12.70;98.90;;;;;;5009423;28;20050;-69
2022/04/28 11:14:44;;;;;;;0.10;0.10;;;12.70;98.60;;;;;;5008265;28;20041;-69
2022/04/28 11:17:11;;;;;;;0.10;0.10;;;12.70;99.20;;;;;;5025198;28;20100;-69
2022/04/28 11:19:36;;;;;;;0.00;0.00;;;12.80;98.80;;;;;;5008151;28;20048;-70
2022/04/28 11:22:02;;;;;;;0.10;0.10;;;12.90;97.90;;;;;;5006695;28;20045;-69
2022/04/28 11:24:28;;;;;;;0.10;0.10;;;12.70;98.30;;;;;;5009838;28;20049;-69
2022/04/28 11:26:58;;;;;;;0.10;0.10;;;12.90;97.80;;;;;;5007880;28;20085;-69
2022/04/28 11:29:23;;;;;;;0.00;0.00;;;13.00;98.40;;;;;;5008595;28;20456;-69
2022/04/28 11:31:49;;;;;;;2.20;1.40;;;13.00;98.20;;;;;;5004376;28;20572;-69
2022/04/28 11:34:15;;;;;;;0.10;0.10;;;13.00;98.50;;;;;;5008063;28;20133;-70
2022/04/28 11:36:43;;;;;;;0.00;0.00;;;12.90;98.30;;;;;;5008339;28;20041;-69
2022/04/28 11:39:09;;;;;;;0.10;0.10;;;13.00;98.50;;;;;;5008964;28;20049;-69
2022/04/28 11:41:39;;;;;;;0.10;0.10;;;13.10;98.10;;;;;;5005689;28;21339;-69
2022/04/28 11:44:08;;;;;;;0.00;0.00;;;13.10;97.80;;;;;;5005923;28;20509;-70
2022/04/28 11:46:50;;;;;;;0.75;0.38;;;13.10;97.90;;;;;;5000497;28;20539;-70
2022/04/28 11:49:17;;;;;;;0.10;0.10;;;13.00;98.60;;;;;;5009486;28;20041;-70
2022/04/28 11:51:43;;;;;;;0.15;0.15;;;13.00;98.10;;;;;;5006971;28;20528;-70
2022/04/28 11:54:24;;;;;;;0.10;0.10;;;13.00;98.30;;;;;;5008280;28;20143;-70
2022/04/28 11:56:50;;;;;;;0.00;0.00;;;13.20;98.60;;;;;;5008665;28;20478;-70
2022/04/28 11:59:15;;;;;;;0.35;0.25;;;13.10;98.10;;;;;;5008313;28;20054;-69
2022/04/28 12:01:42;;;;;;;0.03;0.03;;;13.10;97.90;;;;;;5004629;28;20097;-69
2022/04/28 12:04:10;;;;;;;4.75;1.75;;;13.10;97.90;;;;;;5003914;28;20066;-70
2022/04/28 12:06:37;;;;;;;0.00;0.00;;;13.10;98.10;;;;;;5005857;28;20038;-70
2022/04/28 12:14:34;;;;;;;0.30;0.30;;;13.10;98.00;;;;;;5022002;28;20076;-70
2022/04/28 12:19:57;;;;;;;0.22;0.22;;;12.90;98.70;;;;;;5010185;28;20572;-71
2022/04/28 12:22:27;;;;;;;0.63;0.30;;;13.00;98.90;;;;;;5010296;28;20074;-71
2022/04/28 12:24:53;;;;;;;0.10;0.10;;;13.00;98.40;;;;;;5009174;28;20064;-70
2022/04/28 12:27:19;;;;;;;0.32;0.32;;;13.00;98.70;;;;;;5008675;28;20636;-70
2022/04/28 12:29:55;;;;;;;0.10;0.10;;;13.00;98.40;;;;;;5001720;28;20046;-71
2022/04/28 12:32:21;;;;;;;0.00;0.00;;;13.10;98.40;;;;;;5004872;28;20042;-71
2022/04/28 12:34:58;;;;;;;2.17;0.65;;;13.30;97.90;;;;;;5008582;28;20092;-70
2022/04/28 12:37:26;;;;;;;0.10;0.10;;;13.20;98.60;;;;;;5010441;28;20045;-69
2022/04/28 12:40:01;;;;;;;14.80;1.55;;;13.30;98.60;;;;;;5008198;28;20486;-69
2022/04/28 12:42:43;;;;;;;0.30;0.30;;;13.10;98.20;;;;;;5009561;28;20061;-69
2022/04/28 12:45:09;;;;;;;0.32;0.32;;;13.20;98.30;;;;;;5005243;28;20520;-69
2022/04/28 12:47:37;;;;;;;0.63;0.63;;;13.20;98.00;;;;;;5009485;28;20050;-68
2022/04/28 12:50:19;;;;;;;0.00;0.00;;;13.20;98.20;;;;;;5004939;28;20045;-68
2022/04/28 12:52:45;;;;;;;0.10;0.10;;;13.30;97.70;;;;;;5001031;28;20153;-69
2022/04/28 12:55:10;;;;;;;0.03;0.03;;;13.20;98.50;;;;;;5006212;28;20478;-69
2022/04/28 12:57:36;;;;;;;0.00;0.00;;;13.20;97.90;;;;;;5005755;28;20046;-68
2022/04/28 13:00:07;;;;;;;0.08;0.08;;;13.40;98.10;;;;;;5007724;28;20050;-69
2022/04/28 13:02:33;;;;;;;0.10;0.10;;;13.30;97.90;;;;;;5008941;28;20405;-69
2022/04/28 13:05:15;;;;;;;0.08;0.08;;;13.20;97.70;;;;;;5009955;28;20129;-69
2022/04/28 13:07:42;;;;;;;0.52;0.52;;;13.10;97.90;;;;;;5008475;28;20046;-69
2022/04/28 13:10:09;;;;;;;1.13;1.00;;;13.10;98.10;;;;;;5011445;28;20076;-69
2022/04/28 13:12:36;;;;;;;0.05;0.05;;;13.10;98.30;;;;;;5015747;28;20045;-69
2022/04/28 13:15:04;;;;;;;0.10;0.10;;;13.20;98.00;;;;;;5012819;28;20050;-69
2022/04/28 13:17:29;;;;;;;1.45;1.35;;;13.30;98.20;;;;;;5019474;28;20072;-69
2022/04/28 13:19:55;;;;;;;0.60;0.60;;;13.10;98.00;;;;;;5008551;28;20501;-69
2022/04/28 13:22:21;;;;;;;0.10;0.10;;;13.10;97.60;;;;;;5019453;28;20030;-69
2022/04/28 13:24:47;;;;;;;0.10;0.10;;;13.20;98.00;;;;;;5015958;28;20041;-69
2022/04/28 13:27:12;;;;;;;0.10;0.10;;;13.40;98.00;;;;;;5022405;28;20042;-69